Time;durP1;ratioP1;P1;durP2;ratioP2;P2;SDS_P1;SDS_P2;PMS_P1;PMS_P2;Temp;Humidity;BMP_temperature;BMP_pressure;BME280_temperature;BME280_humidity;BME280_pressure;Samples;Min_cycle;Max_cycle;Signal;HPM_P1;HPM_P2
2023/04/29 00:00:10;;;;;;;5.00;4.50;;;12.20;1.00;;;;;;5056575;28;20209;-46
2023/04/29 00:02:35;;;;;;;5.30;4.90;;;12.20;1.00;;;;;;5056494;28;20511;-44
2023/04/29 00:05:03;;;;;;;5.10;4.60;;;12.10;1.00;;;;;;5056431;28;20477;-46
2023/04/29 00:07:31;;;;;;;5.40;4.90;;;12.10;1.00;;;;;;5056753;28;20185;-46
2023/04/29 00:09:57;;;;;;;5.73;4.83;;;12.10;1.00;;;;;;5056290;28;20521;-45
2023/04/29 00:12:23;;;;;;;4.67;3.97;;;12.10;1.00;;;;;;5057311;28;20714;-47
2023/04/29 00:14:48;;;;;;;5.20;4.70;;;12.20;1.00;;;;;;5057579;28;20835;-46
2023/04/29 00:17:15;;;;;;;4.93;4.33;;;12.20;1.00;;;;;;5055994;28;20275;-46
2023/04/29 00:19:40;;;;;;;4.33;4.03;;;12.20;1.00;;;;;;5056240;28;20492;-47
2023/04/29 00:22:06;;;;;;;4.57;4.17;;;12.30;1.00;;;;;;5055631;28;20606;-45
2023/04/29 00:24:32;;;;;;;4.87;4.20;;;12.30;1.00;;;;;;5055996;28;20594;-44
2023/04/29 00:26:58;;;;;;;5.80;4.47;;;12.30;1.00;;;;;;5055028;28;20519;-46
2023/04/29 00:29:24;;;;;;;4.37;3.97;;;12.30;1.00;;;;;;5055241;28;20231;-45
2023/04/29 00:31:49;;;;;;;5.80;4.10;;;12.20;1.00;;;;;;5054988;28;20447;-45
2023/04/29 00:34:15;;;;;;;4.10;3.80;;;12.20;1.00;;;;;;5055371;28;20182;-45
2023/04/29 00:36:41;;;;;;;5.17;4.77;;;12.20;1.00;;;;;;5054606;28;20182;-45
2023/04/29 00:39:06;;;;;;;4.13;3.77;;;12.20;1.00;;;;;;5055658;28;20201;-47
2023/04/29 00:41:32;;;;;;;4.47;4.07;;;12.10;1.00;;;;;;5056546;28;20166;-44
2023/04/29 00:43:58;;;;;;;3.87;3.57;;;12.10;1.00;;;;;;5056095;28;20173;-46
2023/04/29 00:46:24;;;;;;;4.07;3.53;;;12.10;1.00;;;;;;5056737;28;20467;-45
2023/04/29 00:48:50;;;;;;;4.00;3.70;;;12.10;1.00;;;;;;5055504;28;20174;-45
2023/04/29 00:51:16;;;;;;;4.17;3.87;;;12.00;1.00;;;;;;5056132;28;20547;-45
2023/04/29 00:53:42;;;;;;;5.03;3.60;;;12.00;1.00;;;;;;5056480;28;20511;-45
2023/04/29 00:56:09;;;;;;;3.13;2.93;;;12.00;1.00;;;;;;5056200;28;20424;-46
2023/04/29 00:58:35;;;;;;;4.00;3.70;;;12.00;1.00;;;;;;5055571;28;20503;-45
2023/04/29 01:01:02;;;;;;;3.83;3.53;;;11.90;1.00;;;;;;5056432;28;20524;-48
2023/04/29 01:03:29;;;;;;;3.60;3.30;;;11.90;1.00;;;;;;5057189;28;20416;-45
2023/04/29 01:06:15;;;;;;;3.97;3.67;;;11.90;1.00;;;;;;5057108;28;20747;-45
2023/04/29 01:08:41;;;;;;;4.03;3.73;;;11.90;1.00;;;;;;5057685;28;20435;-46
2023/04/29 01:11:10;;;;;;;3.90;3.60;;;11.90;1.00;;;;;;5057043;28;20436;-46
2023/04/29 01:13:50;;;;;;;3.73;3.43;;;11.90;1.00;;;;;;5057286;28;20173;-45
2023/04/29 01:16:33;;;;;;;3.93;3.63;;;11.90;1.00;;;;;;5055987;28;20515;-44
2023/04/29 01:19:02;;;;;;;4.00;3.70;;;11.90;1.00;;;;;;5056698;28;20795;-45
2023/04/29 01:21:30;;;;;;;3.83;3.47;;;12.00;1.00;;;;;;5060433;28;20424;-45
2023/04/29 01:23:56;;;;;;;3.40;3.10;;;12.00;1.00;;;;;;5060278;28;20419;-45
2023/04/29 01:26:22;;;;;;;3.47;3.17;;;12.00;1.00;;;;;;5060173;28;20432;-45
2023/04/29 01:28:54;;;;;;;5.77;3.70;;;12.00;1.00;;;;;;5060299;28;20252;-47
2023/04/29 01:31:40;;;;;;;4.03;3.73;;;12.00;1.00;;;;;;5059371;28;20420;-47
2023/04/29 01:34:22;;;;;;;3.90;3.60;;;12.00;1.00;;;;;;5042482;28;20423;-47
2023/04/29 01:36:51;;;;;;;2.77;2.53;;;12.00;1.00;;;;;;5059061;28;20435;-47
2023/04/29 01:39:26;;;;;;;4.60;2.30;;;12.30;1.00;;;;;;5060670;28;20459;-47
2023/04/29 01:42:17;;;;;;;2.90;2.40;;;12.50;1.00;;;;;;5059719;28;20702;-49
2023/04/29 01:44:43;;;;;;;3.00;2.80;;;12.90;1.00;;;;;;5024201;28;20443;-47
2023/04/29 01:47:12;;;;;;;2.50;2.30;;;13.00;1.00;;;;;;5059098;28;20841;-45
2023/04/29 01:49:38;;;;;;;3.10;2.80;;;13.00;1.00;;;;;;5058641;28;20184;-47
2023/04/29 01:52:04;;;;;;;3.83;2.80;;;13.00;1.00;;;;;;5058712;28;20537;-46
2023/04/29 01:54:30;;;;;;;3.23;2.70;;;12.80;1.00;;;;;;5060198;28;20690;-44
2023/04/29 01:56:57;;;;;;;3.50;3.20;;;12.70;99.90;;;;;;5059553;28;20442;-45
2023/04/29 01:59:23;;;;;;;3.90;3.50;;;12.60;99.90;;;;;;5060369;28;20460;-44
2023/04/29 02:01:48;;;;;;;4.60;3.50;;;12.40;1.00;;;;;;5059742;28;20427;-46
2023/04/29 02:04:14;;;;;;;4.40;3.67;;;12.30;1.00;;;;;;5058931;28;20624;-46
2023/04/29 02:06:39;;;;;;;3.33;3.03;;;12.20;1.00;;;;;;5059281;28;20240;-45
2023/04/29 02:09:05;;;;;;;3.27;3.07;;;12.10;1.00;;;;;;5059853;28;20186;-45
2023/04/29 02:11:31;;;;;;;3.63;3.33;;;12.10;1.00;;;;;;5057451;28;20182;-45
2023/04/29 02:13:57;;;;;;;4.17;3.10;;;12.00;1.00;;;;;;5057939;28;20412;-44
2023/04/29 02:16:22;;;;;;;3.70;3.00;;;11.90;1.00;;;;;;5057393;28;20390;-47
2023/04/29 02:18:48;;;;;;;3.30;3.10;;;11.80;1.00;;;;;;5056597;28;20265;-45
2023/04/29 02:21:14;;;;;;;3.53;3.23;;;11.80;1.00;;;;;;5055980;28;20186;-44
2023/04/29 02:23:40;;;;;;;2.80;2.60;;;11.70;1.00;;;;;;5055633;28;20180;-44
2023/04/29 02:26:06;;;;;;;3.50;3.00;;;11.60;1.00;;;;;;5055721;28;20432;-46
2023/04/29 02:28:33;;;;;;;5.40;3.17;;;11.60;1.00;;;;;;5055104;28;20428;-47
2023/04/29 02:30:59;;;;;;;4.30;3.90;;;11.50;1.00;;;;;;5055188;28;20442;-45
2023/04/29 02:33:26;;;;;;;4.00;3.70;;;11.50;1.00;;;;;;5056337;28;20868;-47
2023/04/29 02:35:51;;;;;;;3.60;3.30;;;11.40;1.00;;;;;;5058678;28;20436;-48
2023/04/29 02:38:17;;;;;;;3.70;3.40;;;11.40;1.00;;;;;;5059293;28;20182;-46
2023/04/29 02:40:44;;;;;;;4.23;3.87;;;11.30;1.00;;;;;;5059712;28;20748;-46
2023/04/29 02:43:10;;;;;;;4.47;4.07;;;11.30;1.00;;;;;;5059259;28;20263;-45
2023/04/29 02:45:36;;;;;;;3.63;3.33;;;11.30;1.00;;;;;;5058334;28;20412;-46
2023/04/29 02:48:02;;;;;;;3.77;3.47;;;11.30;1.00;;;;;;5058810;28;20508;-45
2023/04/29 02:50:28;;;;;;;4.00;3.60;;;11.30;1.00;;;;;;5059034;28;20412;-45
2023/04/29 02:52:54;;;;;;;10.30;3.90;;;11.30;1.00;;;;;;5059128;28;20185;-44
2023/04/29 02:55:19;;;;;;;4.40;4.10;;;11.30;1.00;;;;;;5058712;28;20193;-46
2023/04/29 02:57:45;;;;;;;3.87;3.57;;;11.30;1.00;;;;;;5059528;28;20432;-45
2023/04/29 03:00:11;;;;;;;4.33;4.00;;;11.30;1.00;;;;;;5059586;28;20209;-46
2023/04/29 03:02:37;;;;;;;4.33;4.03;;;11.30;1.00;;;;;;5059683;28;20260;-46
2023/04/29 03:05:03;;;;;;;3.70;3.40;;;11.20;1.00;;;;;;5059313;28;20456;-44
2023/04/29 03:07:30;;;;;;;5.90;3.57;;;11.20;1.00;;;;;;5058981;28;20185;-45
2023/04/29 03:09:55;;;;;;;4.30;3.90;;;11.20;1.00;;;;;;5058459;28;20423;-45
2023/04/29 03:12:21;;;;;;;4.83;4.33;;;11.20;1.00;;;;;;5057349;28;20432;-46
2023/04/29 03:14:47;;;;;;;4.30;3.93;;;11.20;1.00;;;;;;5058927;28;20185;-45
2023/04/29 03:17:14;;;;;;;4.23;3.93;;;11.20;1.00;;;;;;5057912;28;20174;-44
2023/04/29 03:19:40;;;;;;;4.30;4.00;;;11.20;1.00;;;;;;5058283;28;20206;-45
2023/04/29 03:22:07;;;;;;;3.63;3.33;;;11.20;1.00;;;;;;5057686;28;20428;-44
2023/04/29 03:24:32;;;;;;;4.17;3.87;;;11.20;1.00;;;;;;5058130;28;20423;-43
2023/04/29 03:27:01;;;;;;;5.03;3.90;;;11.20;1.00;;;;;;5058246;28;20534;-45
2023/04/29 03:29:27;;;;;;;4.93;4.50;;;11.20;1.00;;;;;;5058436;28;20523;-45
2023/04/29 03:31:53;;;;;;;7.40;4.33;;;11.20;1.00;;;;;;5058294;28;20436;-45
2023/04/29 03:34:19;;;;;;;4.60;4.20;;;11.10;1.00;;;;;;5057098;28;20526;-46
2023/04/29 03:36:45;;;;;;;4.83;4.40;;;11.10;1.00;;;;;;5057582;28;20500;-46
2023/04/29 03:39:13;;;;;;;4.63;4.10;;;11.10;1.00;;;;;;5057686;28;20968;-46
2023/04/29 03:41:39;;;;;;;4.57;4.20;;;11.10;1.00;;;;;;5057186;28;20641;-45
2023/04/29 03:44:04;;;;;;;5.43;5.03;;;11.10;1.00;;;;;;5056369;28;20424;-46
2023/04/29 03:46:30;;;;;;;4.63;4.23;;;11.10;1.00;;;;;;5055328;28;20196;-47
2023/04/29 03:48:56;;;;;;;5.20;4.80;;;11.00;1.00;;;;;;5056628;28;20420;-44
2023/04/29 03:51:23;;;;;;;5.47;4.97;;;10.90;1.00;;;;;;5056837;28;20174;-45
2023/04/29 03:53:49;;;;;;;5.00;4.50;;;10.90;1.00;;;;;;5056890;28;20478;-45
2023/04/29 03:56:15;;;;;;;4.33;3.90;;;10.80;1.00;;;;;;5055794;28;20447;-44
2023/04/29 03:58:41;;;;;;;4.47;4.13;;;10.80;1.00;;;;;;5054560;28;20424;-43
2023/04/29 04:01:06;;;;;;;5.50;4.20;;;10.70;1.00;;;;;;5054938;28;20830;-46
2023/04/29 04:03:32;;;;;;;5.13;4.53;;;10.70;1.00;;;;;;5054577;28;20694;-45
2023/04/29 04:05:58;;;;;;;5.40;4.90;;;10.70;1.00;;;;;;5055309;28;20420;-46
2023/04/29 04:08:23;;;;;;;4.50;4.10;;;10.60;1.00;;;;;;5056176;28;20177;-45
2023/04/29 04:10:49;;;;;;;4.70;4.30;;;10.60;1.00;;;;;;5056883;28;20444;-46
2023/04/29 04:13:15;;;;;;;4.10;3.80;;;10.60;1.00;;;;;;5057657;28;20650;-46
2023/04/29 04:15:41;;;;;;;5.07;4.67;;;10.60;1.00;;;;;;5057050;28;20177;-45
2023/04/29 04:18:07;;;;;;;5.13;4.63;;;10.60;1.00;;;;;;5057870;28;20631;-44
2023/04/29 04:20:35;;;;;;;4.47;4.17;;;10.60;1.00;;;;;;5058190;28;20550;-46
2023/04/29 04:23:01;;;;;;;4.10;3.77;;;10.50;1.00;;;;;;5058508;28;20734;-46
2023/04/29 04:25:28;;;;;;;4.60;4.30;;;10.50;1.00;;;;;;5056377;28;20416;-47
2023/04/29 04:27:53;;;;;;;4.87;4.47;;;10.50;1.00;;;;;;5057279;28;20580;-46
2023/04/29 04:30:19;;;;;;;4.50;4.10;;;10.50;1.00;;;;;;5058131;28;20460;-44
2023/04/29 04:32:45;;;;;;;4.40;4.00;;;10.40;1.00;;;;;;5056852;28;20213;-43
2023/04/29 04:35:11;;;;;;;5.53;5.03;;;10.40;1.00;;;;;;5056378;28;20463;-45
2023/04/29 04:37:37;;;;;;;4.67;4.27;;;10.40;1.00;;;;;;5056392;28;20189;-45
2023/04/29 04:40:03;;;;;;;4.87;4.30;;;10.40;1.00;;;;;;5057249;28;20467;-43
2023/04/29 04:42:29;;;;;;;4.30;4.00;;;10.40;1.00;;;;;;5056798;28;20247;-43
2023/04/29 04:44:56;;;;;;;4.87;4.40;;;10.40;1.00;;;;;;5055666;28;20428;-44
2023/04/29 04:47:22;;;;;;;5.53;5.10;;;10.40;1.00;;;;;;5055247;28;20256;-44
2023/04/29 04:49:48;;;;;;;5.30;4.83;;;10.40;1.00;;;;;;5054760;28;20415;-44
2023/04/29 04:52:15;;;;;;;5.23;4.73;;;10.40;1.00;;;;;;5055896;28;20855;-43
2023/04/29 04:54:40;;;;;;;4.30;4.00;;;10.40;1.00;;;;;;5054406;28;20727;-43
2023/04/29 04:57:06;;;;;;;5.13;4.40;;;10.40;1.00;;;;;;5054067;28;20467;-43
2023/04/29 04:59:33;;;;;;;5.47;4.97;;;10.50;1.00;;;;;;5052988;28;20210;-42
2023/04/29 05:01:58;;;;;;;4.87;4.47;;;10.50;1.00;;;;;;5054253;28;20229;-43
2023/04/29 05:04:24;;;;;;;4.70;4.03;;;10.60;1.00;;;;;;5054100;28;20436;-44
2023/04/29 05:06:50;;;;;;;5.40;5.00;;;10.60;1.00;;;;;;5053718;28;20257;-43
2023/04/29 05:09:16;;;;;;;6.00;5.50;;;10.70;1.00;;;;;;5054995;28;20320;-46
2023/04/29 05:11:41;;;;;;;7.50;6.87;;;10.70;1.00;;;;;;5055630;28;20470;-44
2023/04/29 05:14:07;;;;;;;5.50;5.10;;;10.70;1.00;;;;;;5057490;28;20189;-44
2023/04/29 05:16:32;;;;;;;5.73;4.60;;;10.80;1.00;;;;;;5057125;28;20566;-43
2023/04/29 05:18:58;;;;;;;5.30;4.80;;;10.80;1.00;;;;;;5057557;28;20200;-49
2023/04/29 05:21:24;;;;;;;5.30;4.80;;;10.90;1.00;;;;;;5057196;28;20575;-45
2023/04/29 05:23:50;;;;;;;6.47;5.00;;;11.00;1.00;;;;;;5057513;28;20174;-44
2023/04/29 05:26:15;;;;;;;6.17;5.67;;;11.00;1.00;;;;;;5055850;28;20586;-46
2023/04/29 05:28:41;;;;;;;6.10;5.60;;;11.10;1.00;;;;;;5055363;28;20478;-44
2023/04/29 05:31:07;;;;;;;5.47;4.97;;;11.20;1.00;;;;;;5055708;28;20216;-45
2023/04/29 05:33:32;;;;;;;5.90;5.40;;;11.20;1.00;;;;;;5054361;28;20193;-42
2023/04/29 05:35:58;;;;;;;5.90;5.40;;;11.30;1.00;;;;;;5055017;28;20182;-44
2023/04/29 05:38:27;;;;;;;5.20;4.80;;;11.40;1.00;;;;;;5055312;28;20472;-43
2023/04/29 05:40:56;;;;;;;5.30;4.90;;;11.50;1.00;;;;;;5054972;28;20206;-44
2023/04/29 05:43:22;;;;;;;5.70;5.20;;;11.60;1.00;;;;;;5054164;28;20412;-43
2023/04/29 05:45:48;;;;;;;4.90;4.50;;;11.60;1.00;;;;;;5051632;28;20432;-43
2023/04/29 05:48:14;;;;;;;4.97;4.57;;;11.70;1.00;;;;;;5051360;28;20422;-44
2023/04/29 05:50:40;;;;;;;4.90;4.50;;;11.80;1.00;;;;;;5052901;28;20198;-43
2023/04/29 05:53:06;;;;;;;5.10;4.50;;;11.80;1.00;;;;;;5052622;28;20244;-46
2023/04/29 05:55:31;;;;;;;5.00;4.60;;;11.80;1.00;;;;;;5051232;28;20818;-44
2023/04/29 05:57:57;;;;;;;4.90;4.50;;;11.80;1.00;;;;;;5050837;28;20204;-44
2023/04/29 06:00:23;;;;;;;4.63;4.23;;;11.90;1.00;;;;;;5051533;28;20289;-44
2023/04/29 06:02:48;;;;;;;5.67;5.17;;;12.10;1.00;;;;;;5053383;28;20460;-43
2023/04/29 06:05:14;;;;;;;6.03;5.57;;;12.20;1.00;;;;;;5054069;28;20397;-44
2023/04/29 06:07:41;;;;;;;5.77;5.27;;;12.30;99.90;;;;;;5055005;28;20178;-44
2023/04/29 06:10:09;;;;;;;5.30;4.87;;;12.40;99.90;;;;;;5057242;28;20606;-44
2023/04/29 06:12:35;;;;;;;5.80;5.30;;;12.50;99.90;;;;;;5056995;28;20428;-45
2023/04/29 06:15:01;;;;;;;5.13;4.73;;;12.60;99.90;;;;;;5056502;28;20826;-44
2023/04/29 06:17:28;;;;;;;4.83;4.43;;;12.60;99.90;;;;;;5055636;28;20185;-45
2023/04/29 06:19:54;;;;;;;5.20;4.80;;;12.70;99.90;;;;;;5057169;28;20714;-43
2023/04/29 06:22:20;;;;;;;7.67;4.80;;;12.90;99.90;;;;;;5056507;28;20885;-46
2023/04/29 06:24:48;;;;;;;4.53;4.13;;;13.10;99.90;;;;;;5057773;28;20444;-44
2023/04/29 06:27:14;;;;;;;4.20;3.80;;;13.20;99.40;;;;;;5058696;28;20430;-45
2023/04/29 06:29:40;;;;;;;3.50;3.20;;;13.30;1.00;;;;;;5058444;28;20506;-47
2023/04/29 06:32:06;;;;;;;3.57;3.27;;;13.50;1.00;;;;;;5058776;28;20511;-44
2023/04/29 06:34:32;;;;;;;3.07;2.87;;;13.50;99.90;;;;;;5059065;28;20518;-45
2023/04/29 06:36:58;;;;;;;3.30;3.00;;;13.60;99.90;;;;;;5059142;28;20724;-45
2023/04/29 06:39:23;;;;;;;3.10;2.80;;;13.50;1.00;;;;;;5058337;28;20264;-45
2023/04/29 06:41:49;;;;;;;4.43;2.70;;;13.40;1.00;;;;;;5058431;28;20235;-45
2023/04/29 06:44:16;;;;;;;2.87;2.60;;;13.40;1.00;;;;;;5058068;28;20244;-45
2023/04/29 06:46:42;;;;;;;2.93;2.63;;;13.50;1.00;;;;;;5056157;28;20269;-45
2023/04/29 06:49:08;;;;;;;3.80;3.23;;;13.60;99.90;;;;;;5058590;28;20515;-45
2023/04/29 06:51:35;;;;;;;3.00;2.70;;;13.90;99.90;;;;;;5058889;28;20178;-47
2023/04/29 06:54:01;;;;;;;3.23;2.80;;;14.20;99.90;;;;;;5057973;28;20432;-48
2023/04/29 06:56:27;;;;;;;4.00;3.70;;;14.50;99.90;;;;;;5055596;28;20432;-45
2023/04/29 06:58:52;;;;;;;4.13;3.83;;;14.80;1.00;;;;;;5056344;28;20269;-44
2023/04/29 07:01:18;;;;;;;4.33;3.93;;;15.10;99.90;;;;;;5054442;28;20174;-46
2023/04/29 07:03:44;;;;;;;3.73;3.30;;;15.10;1.00;;;;;;5056236;28;20178;-46
2023/04/29 07:06:09;;;;;;;4.50;3.43;;;15.10;1.00;;;;;;5057244;28;20178;-46
2023/04/29 07:08:35;;;;;;;3.87;3.57;;;14.90;1.00;;;;;;5056303;28;20274;-45
2023/04/29 07:11:01;;;;;;;3.40;3.10;;;15.00;1.00;;;;;;5056725;28;20205;-47
2023/04/29 07:13:26;;;;;;;3.40;3.10;;;15.10;99.90;;;;;;5056658;28;20247;-45
2023/04/29 07:15:52;;;;;;;2.97;2.77;;;15.40;1.00;;;;;;5056344;28;20186;-44
2023/04/29 07:18:18;;;;;;;3.10;2.90;;;15.70;1.00;;;;;;5055027;28;20193;-44
2023/04/29 07:20:44;;;;;;;3.43;3.13;;;15.70;58.50;;;;;;5055527;28;20212;-45
2023/04/29 07:23:10;;;;;;;3.13;2.80;;;15.70;1.00;;;;;;5056774;28;20189;-46
2023/04/29 07:25:36;;;;;;;3.60;3.30;;;15.60;1.00;;;;;;5055857;28;20749;-48
2023/04/29 07:28:02;;;;;;;3.60;3.30;;;15.30;99.90;;;;;;5055974;28;20463;-46
2023/04/29 07:30:28;;;;;;;3.50;3.30;;;15.30;99.90;;;;;;5054066;28;20482;-45
2023/04/29 07:32:54;;;;;;;3.13;2.93;;;15.10;31.90;;;;;;5054394;28;20849;-44
2023/04/29 07:35:20;;;;;;;3.87;3.47;;;14.90;1.00;;;;;;5054661;28;20420;-44
2023/04/29 07:37:45;;;;;;;3.43;3.17;;;15.00;99.90;;;;;;5055185;28;20185;-46
2023/04/29 07:40:12;;;;;;;2.80;2.60;;;15.00;99.90;;;;;;5055739;28;20486;-47
2023/04/29 07:42:39;;;;;;;3.10;2.90;;;15.00;99.90;;;;;;5054981;28;20190;-44
2023/04/29 07:45:05;;;;;;;2.50;2.30;;;15.00;99.90;;;;;;5056785;28;20511;-47
2023/04/29 07:47:31;;;;;;;4.23;3.83;;;14.90;99.90;;;;;;5056657;28;20530;-44
2023/04/29 07:49:56;;;;;;;3.67;3.37;;;14.50;99.90;;;;;;5055896;28;20885;-49
2023/04/29 07:52:22;;;;;;;3.73;3.37;;;14.30;1.00;;;;;;5055219;28;20174;-44
2023/04/29 07:54:48;;;;;;;4.00;3.60;;;14.50;1.00;;;;;;5056558;28;20420;-47
2023/04/29 07:57:13;;;;;;;3.20;2.90;;;14.80;18.30;;;;;;5056350;28;20182;-45
2023/04/29 07:59:39;;;;;;;2.80;2.60;;;15.00;1.00;;;;;;5056465;28;20356;-49
2023/04/29 08:02:05;;;;;;;4.27;3.87;;;15.40;1.00;;;;;;5055214;28;20650;-44
2023/04/29 08:04:31;;;;;;;2.97;2.73;;;15.60;1.00;;;;;;5057063;28;20311;-45
2023/04/29 08:06:57;;;;;;;3.50;2.60;;;15.60;99.90;;;;;;5056603;28;20589;-44
2023/04/29 08:09:22;;;;;;;2.93;2.60;;;15.70;99.90;;;;;;5055979;28;20572;-44
2023/04/29 08:11:48;;;;;;;2.63;2.43;;;15.80;99.90;;;;;;5053229;28;20525;-46
2023/04/29 08:14:14;;;;;;;3.00;2.70;;;16.00;41.00;;;;;;5053186;28;20271;-46
2023/04/29 08:16:40;;;;;;;5.00;2.87;;;16.10;1.00;;;;;;5054394;28;20213;-51
2023/04/29 08:19:05;;;;;;;2.67;2.27;;;16.10;1.00;;;;;;5053460;28;20420;-46
2023/04/29 08:21:31;;;;;;;1.90;1.80;;;16.40;1.00;;;;;;5053989;28;20403;-45
2023/04/29 08:23:57;;;;;;;2.80;2.50;;;16.50;1.00;;;;;;5052817;28;20540;-44
2023/04/29 08:26:23;;;;;;;2.43;2.20;;;16.70;1.00;;;;;;5053599;28;20170;-48
2023/04/29 08:28:48;;;;;;;2.30;2.10;;;17.00;1.00;;;;;;5052298;28;20233;-45
2023/04/29 08:31:18;;;;;;;3.17;2.20;;;17.10;99.90;;;;;;5050943;28;20292;-45
2023/04/29 08:33:45;;;;;;;2.80;2.00;;;17.30;99.90;;;;;;5053589;28;20368;-46
2023/04/29 08:36:11;;;;;;;1.80;1.70;;;17.50;99.90;;;;;;5053483;28;20699;-44
2023/04/29 08:38:37;;;;;;;3.30;1.87;;;17.80;99.90;;;;;;5052823;28;20439;-46
2023/04/29 08:41:02;;;;;;;2.30;2.10;;;18.00;99.90;;;;;;5054516;28;20220;-44
2023/04/29 08:43:28;;;;;;;2.50;1.93;;;18.10;94.50;;;;;;5052977;28;20426;-45
2023/04/29 08:45:57;;;;;;;2.70;2.13;;;18.10;74.00;;;;;;5053272;28;20185;-45
2023/04/29 08:48:22;;;;;;;2.20;2.00;;;18.20;83.10;;;;;;5053618;28;20420;-43
2023/04/29 08:50:48;;;;;;;2.60;2.20;;;18.30;27.30;;;;;;5054551;28;20801;-44
2023/04/29 08:53:14;;;;;;;2.60;2.37;;;18.40;5.90;;;;;;5053147;28;20184;-44
2023/04/29 08:55:46;;;;;;;3.33;2.70;;;18.70;1.80;;;;;;5051906;28;20216;-44
2023/04/29 08:58:13;;;;;;;3.00;2.10;;;18.80;1.00;;;;;;5051610;28;20443;-43
2023/04/29 09:00:39;;;;;;;2.80;2.17;;;19.00;1.00;;;;;;5053607;28;20782;-44
2023/04/29 09:03:26;;;;;;;2.13;1.93;;;19.10;1.00;;;;;;5052846;28;20443;-44
2023/04/29 09:05:55;;;;;;;2.53;1.90;;;19.10;1.00;;;;;;5054911;28;20428;-43
2023/04/29 09:08:24;;;;;;;3.93;1.90;;;19.20;1.00;;;;;;5054698;28;20416;-44
2023/04/29 09:10:51;;;;;;;2.80;2.07;;;19.20;1.00;;;;;;5055865;28;20432;-43
2023/04/29 09:13:28;;;;;;;2.30;2.10;;;19.20;1.00;;;;;;5054703;28;20611;-44
2023/04/29 09:15:54;;;;;;;2.33;2.00;;;19.20;1.00;;;;;;5053983;28;20419;-52
2023/04/29 09:18:43;;;;;;;2.47;2.27;;;19.50;1.00;;;;;;5055559;28;20420;-47
2023/04/29 09:21:13;;;;;;;2.50;2.27;;;19.60;1.00;;;;;;5054724;28;20598;-45
2023/04/29 09:23:38;;;;;;;2.73;2.33;;;19.70;1.00;;;;;;5055368;28;20686;-45
2023/04/29 09:26:04;;;;;;;2.10;2.00;;;19.60;1.00;;;;;;5054495;28;20429;-45
2023/04/29 09:28:30;;;;;;;3.00;2.50;;;19.40;1.00;;;;;;5052926;28;20316;-45
2023/04/29 09:30:56;;;;;;;3.17;2.87;;;19.10;1.00;;;;;;5051367;28;20205;-44
2023/04/29 09:33:21;;;;;;;2.30;2.10;;;18.80;1.00;;;;;;5053261;28;20846;-44
2023/04/29 09:35:47;;;;;;;2.40;2.20;;;18.50;1.00;;;;;;5051571;28;20174;-44
2023/04/29 09:38:15;;;;;;;2.27;2.07;;;18.40;1.00;;;;;;5051043;28;20182;-43
2023/04/29 09:40:41;;;;;;;2.57;2.37;;;18.30;1.00;;;;;;5052171;28;20256;-44
2023/04/29 09:43:17;;;;;;;3.63;2.93;;;18.30;1.00;;;;;;5054261;28;20412;-47
2023/04/29 09:45:47;;;;;;;2.20;2.00;;;18.20;1.00;;;;;;5054880;28;20421;-45
2023/04/29 09:48:14;;;;;;;2.80;2.07;;;18.10;1.00;;;;;;5056615;28;20656;-44
2023/04/29 09:50:42;;;;;;;2.20;2.00;;;17.90;1.00;;;;;;5057730;28;20428;-44
2023/04/29 09:53:09;;;;;;;2.80;2.47;;;17.90;1.00;;;;;;5057316;28;20470;-43
2023/04/29 09:55:59;;;;;;;2.53;2.20;;;17.90;1.00;;;;;;5055952;28;20408;-44
2023/04/29 09:58:32;;;;;;;2.90;2.47;;;17.90;7.00;;;;;;5050240;28;20766;-46
2023/04/29 10:01:01;;;;;;;2.70;2.50;;;17.90;11.70;;;;;;5054685;28;20491;-43
2023/04/29 10:03:32;;;;;;;3.67;2.73;;;18.10;17.90;;;;;;5055693;28;20648;-44
2023/04/29 10:05:59;;;;;;;2.27;2.07;;;18.10;19.90;;;;;;5054812;28;20413;-44
2023/04/29 10:08:26;;;;;;;2.93;2.27;;;18.20;1.00;;;;;;5055225;28;20495;-47
2023/04/29 10:10:56;;;;;;;2.97;2.77;;;18.40;1.00;;;;;;5053811;28;20424;-44
2023/04/29 10:13:25;;;;;;;2.70;2.40;;;18.50;1.00;;;;;;5054366;28;20717;-45
2023/04/29 10:16:05;;;;;;;2.87;2.67;;;18.80;1.00;;;;;;5050649;28;20603;-45
2023/04/29 10:18:36;;;;;;;3.17;2.53;;;19.30;1.00;;;;;;5052738;28;20420;-45
2023/04/29 10:21:03;;;;;;;2.60;2.40;;;19.90;1.00;;;;;;5055634;28;20471;-45
2023/04/29 10:23:29;;;;;;;2.50;2.23;;;20.20;1.00;;;;;;5054534;28;20416;-43
2023/04/29 10:25:56;;;;;;;3.30;2.70;;;20.60;1.00;;;;;;5055163;28;20861;-43
2023/04/29 10:28:23;;;;;;;5.30;3.00;;;21.20;1.00;;;;;;5054831;28;20597;-45
2023/04/29 10:30:53;;;;;;;3.23;2.50;;;21.60;1.00;;;;;;5055063;28;20431;-43
2023/04/29 10:33:21;;;;;;;2.70;2.50;;;21.80;1.00;;;;;;5053307;28;20856;-47
2023/04/29 10:35:48;;;;;;;2.53;2.20;;;21.70;1.00;;;;;;5051576;28;20706;-44
2023/04/29 10:38:20;;;;;;;2.40;1.43;;;21.50;1.00;;;;;;5052467;28;20492;-45
2023/04/29 10:40:47;;;;;;;2.30;2.00;;;21.00;1.00;;;;;;5051933;28;21042;-46
2023/04/29 10:43:13;;;;;;;2.30;2.10;;;20.50;1.00;;;;;;5051160;28;20420;-46
2023/04/29 10:45:39;;;;;;;2.10;1.90;;;20.40;1.00;;;;;;5054104;28;20787;-50
2023/04/29 10:48:09;;;;;;;2.60;2.23;;;20.80;1.00;;;;;;5055044;28;20466;-49
2023/04/29 10:50:47;;;;;;;2.10;1.90;;;21.40;1.00;;;;;;5055386;28;20830;-47
2023/04/29 10:53:14;;;;;;;3.43;2.27;;;21.70;1.00;;;;;;5054237;28;20412;-45
2023/04/29 10:55:41;;;;;;;2.67;2.47;;;22.40;1.00;;;;;;5054953;28;20581;-46
2023/04/29 10:58:45;;;;;;;3.60;2.70;;;22.40;1.00;;;;;;5055064;28;20416;-47
2023/04/29 11:01:13;;;;;;;3.90;2.10;;;22.40;1.00;;;;;;5016155;28;20522;-48
2023/04/29 11:03:57;;;;;;;2.90;1.70;;;22.40;1.00;;;;;;5048891;28;20428;-48
2023/04/29 11:06:24;;;;;;;2.13;1.73;;;22.50;1.00;;;;;;5055668;28;20466;-47
2023/04/29 11:09:03;;;;;;;2.17;1.97;;;22.60;1.00;;;;;;5053998;28;20495;-46
2023/04/29 11:11:43;;;;;;;2.63;2.43;;;22.30;1.00;;;;;;5054622;28;20781;-47
2023/04/29 11:14:13;;;;;;;2.20;2.00;;;22.20;1.00;;;;;;5055676;28;20712;-46
2023/04/29 11:16:53;;;;;;;2.30;2.10;;;22.30;1.00;;;;;;5054567;28;20514;-48
2023/04/29 11:19:19;;;;;;;2.60;2.40;;;22.90;1.00;;;;;;5054421;28;20464;-48
2023/04/29 11:21:46;;;;;;;2.50;2.30;;;23.50;1.00;;;;;;5054063;28;20420;-46
2023/04/29 11:24:14;;;;;;;2.53;2.00;;;23.50;1.00;;;;;;5053499;28;20523;-47
2023/04/29 11:26:40;;;;;;;2.87;2.67;;;23.40;1.00;;;;;;5052083;28;20420;-48
2023/04/29 11:29:09;;;;;;;2.67;2.47;;;23.40;1.00;;;;;;5052900;28;20536;-48
2023/04/29 11:31:35;;;;;;;2.63;2.43;;;23.20;1.00;;;;;;5051860;28;20431;-49
2023/04/29 11:34:03;;;;;;;2.63;2.43;;;23.00;1.00;;;;;;5051908;28;20424;-46
2023/04/29 11:36:31;;;;;;;2.43;2.17;;;22.80;1.00;;;;;;5051386;28;20440;-46
2023/04/29 11:38:59;;;;;;;3.53;2.03;;;22.80;1.00;;;;;;5051569;28;20417;-45
2023/04/29 11:41:25;;;;;;;2.60;2.20;;;22.60;1.00;;;;;;5049927;28;20744;-48
2023/04/29 11:43:56;;;;;;;3.60;2.93;;;22.50;1.00;;;;;;5049586;28;20568;-47
2023/04/29 11:46:22;;;;;;;3.27;2.20;;;22.50;1.00;;;;;;5043087;28;20433;-47
2023/04/29 11:48:49;;;;;;;4.53;2.93;;;22.80;1.00;;;;;;5031133;28;20431;-48
2023/04/29 11:51:17;;;;;;;3.10;2.53;;;22.60;1.00;;;;;;5030402;28;20869;-48
2023/04/29 11:53:43;;;;;;;2.57;2.37;;;22.60;1.00;;;;;;5030502;28;20432;-47
2023/04/29 11:56:10;;;;;;;3.87;1.93;;;22.70;1.00;;;;;;5033457;28;20798;-48
2023/04/29 11:58:36;;;;;;;2.83;2.20;;;22.70;1.00;;;;;;5033722;28;20428;-48
2023/04/29 12:01:03;;;;;;;5.23;2.50;;;22.90;1.00;;;;;;5033266;28;20746;-48
2023/04/29 12:03:30;;;;;;;2.73;2.10;;;22.90;1.00;;;;;;5033521;28;20206;-47
2023/04/29 12:05:57;;;;;;;2.43;2.07;;;23.10;1.00;;;;;;5034223;28;20846;-48
2023/04/29 12:08:27;;;;;;;2.77;2.57;;;23.50;1.00;;;;;;5031833;28;20440;-47
2023/04/29 12:10:54;;;;;;;2.80;2.40;;;23.60;1.00;;;;;;5033231;28;20451;-46
2023/04/29 12:13:22;;;;;;;2.20;2.00;;;23.80;1.00;;;;;;5031302;28;20684;-48
2023/04/29 12:15:49;;;;;;;2.73;2.50;;;23.90;1.00;;;;;;5029863;28;20441;-47
2023/04/29 12:18:16;;;;;;;2.10;1.90;;;23.80;1.00;;;;;;5031600;28;20524;-47
2023/04/29 12:20:43;;;;;;;3.33;2.30;;;23.50;1.00;;;;;;5031899;28;20468;-47
2023/04/29 12:23:21;;;;;;;2.23;1.90;;;23.20;1.00;;;;;;5032370;28;20735;-45
2023/04/29 12:25:55;;;;;;;2.40;1.90;;;23.40;1.00;;;;;;5033845;28;20441;-48
2023/04/29 12:28:21;;;;;;;2.50;1.90;;;23.60;1.00;;;;;;5031282;28;20461;-48
2023/04/29 12:30:47;;;;;;;2.70;1.87;;;23.70;1.00;;;;;;5031671;28;20711;-47
2023/04/29 12:33:23;;;;;;;2.47;1.80;;;23.70;1.00;;;;;;5028760;28;20443;-50
2023/04/29 12:35:56;;;;;;;2.07;1.87;;;23.40;1.00;;;;;;5028345;28;20703;-48
2023/04/29 12:38:31;;;;;;;2.80;2.57;;;23.20;1.00;;;;;;5026532;28;20425;-47
2023/04/29 12:41:00;;;;;;;2.50;2.00;;;23.10;1.00;;;;;;5030331;28;20472;-49
2023/04/29 12:43:30;;;;;;;2.20;1.93;;;22.90;1.00;;;;;;5029081;28;20806;-48
2023/04/29 12:46:02;;;;;;;2.60;2.20;;;22.90;1.00;;;;;;5030256;28;20892;-48
2023/04/29 12:48:31;;;;;;;2.40;1.97;;;22.80;1.00;;;;;;5029841;28;20433;-46
2023/04/29 12:50:58;;;;;;;2.63;2.43;;;22.90;1.00;;;;;;5029314;28;20501;-47
2023/04/29 12:53:25;;;;;;;3.47;2.97;;;23.10;1.00;;;;;;5029021;28;20697;-47
2023/04/29 12:55:51;;;;;;;4.30;3.90;;;23.20;1.00;;;;;;5028513;28;20490;-47